createdAt,value
2023-03-26T00:00:15.652Z,100.00
2023-03-26T00:02:45.481Z,100.00
2023-03-26T00:05:18.076Z,100.00
2023-03-26T00:07:48.877Z,100.00
2023-03-26T00:10:18.946Z,100.00
2023-03-26T00:12:48.765Z,100.00
2023-03-26T00:15:18.626Z,100.00
2023-03-26T00:17:48.939Z,100.00
2023-03-26T00:20:21.648Z,100.00
2023-03-26T00:22:51.656Z,100.00
2023-03-26T00:25:21.614Z,100.00
2023-03-26T00:27:52.789Z,100.00
2023-03-26T00:30:22.702Z,100.00
2023-03-26T00:32:53.957Z,100.00
2023-03-26T00:35:26.568Z,100.00
2023-03-26T00:37:56.401Z,99.44
2023-03-26T00:40:26.241Z,99.30
2023-03-26T00:42:56.295Z,99.36
2023-03-26T00:45:26.133Z,98.63
2023-03-26T00:47:56.130Z,98.21
2023-03-26T00:50:28.632Z,97.04
2023-03-26T00:52:59.039Z,96.74
2023-03-26T00:55:28.788Z,96.60
2023-03-26T00:57:58.635Z,96.66
2023-03-26T01:00:34.989Z,95.54
2023-03-26T01:03:05.094Z,94.65
2023-03-26T01:05:53.319Z,94.06
2023-03-26T01:08:30.856Z,93.93
2023-03-26T01:11:07.609Z,94.54
2023-03-26T01:13:40.644Z,93.64
2023-03-26T01:16:21.554Z,93.23
2023-03-26T01:18:52.954Z,93.78
2023-03-26T01:21:30.502Z,93.64
2023-03-26T01:24:05.352Z,93.82
2023-03-26T01:26:49.584Z,93.92
2023-03-26T01:29:24.683Z,94.20
2023-03-26T01:32:05.296Z,94.43
2023-03-26T01:34:52.478Z,93.84
2023-03-26T01:37:30.706Z,94.12
2023-03-26T01:40:12.075Z,92.77
2023-03-26T01:42:48.871Z,93.16
2023-03-26T01:45:21.371Z,92.72
2023-03-26T01:47:51.999Z,91.65
2023-03-26T01:50:21.922Z,91.41
2023-03-26T01:52:51.779Z,91.87
2023-03-26T01:55:27.203Z,92.14
2023-03-26T01:58:06.269Z,92.80
2023-03-26T02:00:41.212Z,91.95
2023-03-26T02:03:23.787Z,91.71
2023-03-26T02:06:00.722Z,91.96
2023-03-26T02:08:36.021Z,92.08
2023-03-26T02:11:13.245Z,92.37
2023-03-26T02:13:45.613Z,92.54
2023-03-26T02:16:19.032Z,92.89
2023-03-26T02:18:51.598Z,92.66
2023-03-26T02:21:23.471Z,92.00
2023-03-26T02:24:03.240Z,92.63
2023-03-26T02:26:39.420Z,92.19
2023-03-26T02:29:20.649Z,91.99
2023-03-26T02:31:52.134Z,91.95
2023-03-26T02:34:21.987Z,91.99
2023-03-26T02:36:54.171Z,91.73
2023-03-26T02:39:24.039Z,92.21
2023-03-26T02:42:07.868Z,92.21
2023-03-26T02:44:43.600Z,92.58
2023-03-26T02:47:22.132Z,92.56
2023-03-26T02:49:54.660Z,93.15
2023-03-26T02:52:30.584Z,93.18
2023-03-26T02:55:01.895Z,92.72
2023-03-26T02:57:34.843Z,93.16
2023-03-26T03:00:14.244Z,93.51
2023-03-26T03:02:59.685Z,92.78
2023-03-26T03:05:38.169Z,93.12
2023-03-26T03:08:29.530Z,93.10
2023-03-26T03:11:25.242Z,93.06
2023-03-26T03:13:57.670Z,92.77
2023-03-26T03:16:29.978Z,92.19
2023-03-26T03:19:03.135Z,92.24
2023-03-26T03:21:39.275Z,92.47
2023-03-26T03:24:11.790Z,93.48
2023-03-26T03:26:50.418Z,93.02
2023-03-26T03:29:36.584Z,92.65
2023-03-26T03:32:44.180Z,92.38
2023-03-26T03:35:14.886Z,92.46
2023-03-26T03:37:47.813Z,92.71
2023-03-26T03:40:17.942Z,92.41
2023-03-26T03:42:48.226Z,92.49
2023-03-26T03:45:28.500Z,93.52
2023-03-26T03:48:09.913Z,93.70
2023-03-26T03:50:46.381Z,93.43
2023-03-26T03:53:29.126Z,93.05
2023-03-26T03:56:02.210Z,93.72
2023-03-26T03:58:55.011Z,93.91
2023-03-26T04:01:35.361Z,94.56
2023-03-26T04:04:11.995Z,95.85
2023-03-26T04:07:02.168Z,97.29
2023-03-26T04:09:39.235Z,98.66
2023-03-26T04:12:16.475Z,99.46
2023-03-26T04:14:54.221Z,98.90
2023-03-26T04:17:27.511Z,98.50
2023-03-26T04:20:06.440Z,98.93
2023-03-26T04:22:36.768Z,97.27
2023-03-26T04:25:12.433Z,95.87
2023-03-26T04:27:58.536Z,95.42
2023-03-26T04:30:47.257Z,95.33
2023-03-26T04:33:46.567Z,95.10
2023-03-26T04:36:19.872Z,94.73
2023-03-26T04:38:53.533Z,94.73
2023-03-26T04:41:29.245Z,95.08
2023-03-26T04:44:07.666Z,94.44
2023-03-26T04:46:50.325Z,95.01
2023-03-26T04:49:32.129Z,94.95
2023-03-26T04:52:02.705Z,95.24
2023-03-26T04:55:10.450Z,95.38
2023-03-26T04:57:46.311Z,95.76
2023-03-26T05:00:39.013Z,94.99
2023-03-26T05:03:09.850Z,95.48
2023-03-26T05:05:43.525Z,95.17
2023-03-26T05:08:13.535Z,95.33
2023-03-26T05:10:43.373Z,95.63
2023-03-26T05:13:17.637Z,95.69
2023-03-26T05:15:52.780Z,95.40
2023-03-26T05:18:42.870Z,95.48
2023-03-26T05:21:15.672Z,94.26
2023-03-26T05:23:45.668Z,94.97
2023-03-26T05:26:22.793Z,95.38
2023-03-26T05:28:52.936Z,95.47
2023-03-26T05:31:38.316Z,95.61
2023-03-26T05:34:08.361Z,95.47
2023-03-26T05:36:40.908Z,94.94
2023-03-26T05:39:30.129Z,94.27
2023-03-26T05:42:18.531Z,94.50
2023-03-26T05:45:02.861Z,94.03
2023-03-26T05:47:35.110Z,93.99
2023-03-26T05:50:05.309Z,93.74
2023-03-26T05:52:41.733Z,93.80
2023-03-26T05:55:23.209Z,93.61
2023-03-26T05:58:29.126Z,93.74
2023-03-26T06:01:19.860Z,93.50
2023-03-26T06:04:08.629Z,93.53
2023-03-26T06:06:42.929Z,93.64
2023-03-26T06:09:15.992Z,92.87
2023-03-26T06:11:46.364Z,92.94
2023-03-26T06:14:16.396Z,93.27
2023-03-26T06:17:06.602Z,92.84
2023-03-26T06:19:56.431Z,92.70
2023-03-26T06:22:35.284Z,92.59
2023-03-26T06:25:44.505Z,92.04
2023-03-26T06:28:32.804Z,92.02
2023-03-26T06:31:09.851Z,91.72
2023-03-26T06:33:54.352Z,91.59
2023-03-26T06:36:24.292Z,91.89
2023-03-26T06:38:54.300Z,92.00
2023-03-26T06:41:26.792Z,91.21
2023-03-26T06:44:04.900Z,90.92
2023-03-26T06:47:03.626Z,89.74
2023-03-26T06:50:02.680Z,90.34
2023-03-26T06:52:40.970Z,88.13
2023-03-26T06:55:26.156Z,88.02
2023-03-26T06:58:17.243Z,87.74
2023-03-26T07:01:07.467Z,88.05
2023-03-26T07:04:03.158Z,88.35
2023-03-26T07:06:56.058Z,88.52
2023-03-26T07:10:04.679Z,87.88
2023-03-26T07:12:59.166Z,86.69
2023-03-26T07:15:31.931Z,87.42
2023-03-26T07:18:14.146Z,87.70
2023-03-26T07:20:47.423Z,87.35
2023-03-26T07:23:20.920Z,86.81
2023-03-26T07:26:28.543Z,86.82
2023-03-26T07:29:21.332Z,85.46
2023-03-26T07:32:19.003Z,85.18
2023-03-26T07:34:59.762Z,84.50
2023-03-26T07:38:03.495Z,84.62
2023-03-26T07:41:09.021Z,84.85
2023-03-26T07:44:11.691Z,83.86
2023-03-26T07:47:29.520Z,83.39
2023-03-26T07:50:20.210Z,83.21
2023-03-26T07:53:10.841Z,82.88
2023-03-26T07:56:17.111Z,83.95
2023-03-26T07:59:15.671Z,84.42
2023-03-26T08:01:57.058Z,84.80
2023-03-26T08:04:56.945Z,83.28
2023-03-26T08:07:58.869Z,83.21
2023-03-26T08:10:39.650Z,83.17
2023-03-26T08:13:26.114Z,82.34
2023-03-26T08:16:07.192Z,82.06
2023-03-26T08:18:48.857Z,82.40
2023-03-26T08:21:27.274Z,80.65
2023-03-26T08:24:07.243Z,80.73
2023-03-26T08:26:47.899Z,80.85
2023-03-26T08:29:28.140Z,80.85
2023-03-26T08:31:58.575Z,80.94
2023-03-26T08:34:28.690Z,81.06
2023-03-26T08:37:01.442Z,79.90
2023-03-26T08:39:31.739Z,80.56
2023-03-26T08:42:30.556Z,79.71
2023-03-26T08:45:35.618Z,79.29
2023-03-26T08:48:41.821Z,79.63
2023-03-26T08:51:51.809Z,79.86
2023-03-26T08:54:46.471Z,79.52
2023-03-26T08:57:49.282Z,78.54
2023-03-26T09:00:39.551Z,79.55
2023-03-26T09:03:41.531Z,78.57
2023-03-26T09:06:49.719Z,78.65
2023-03-26T09:10:03.693Z,77.32
2023-03-26T09:12:55.198Z,76.71
2023-03-26T09:16:06.578Z,76.94
2023-03-26T09:19:04.040Z,77.30
2023-03-26T09:22:11.166Z,77.75
2023-03-26T09:25:02.883Z,78.25
2023-03-26T09:27:42.085Z,78.27
2023-03-26T09:30:31.442Z,76.84
2023-03-26T09:33:31.497Z,78.23
2023-03-26T09:36:22.432Z,77.25
2023-03-26T09:38:57.262Z,77.12
2023-03-26T09:41:39.419Z,77.00
2023-03-26T09:44:47.936Z,75.47
2023-03-26T09:47:46.481Z,75.73
2023-03-26T09:50:32.207Z,76.18
2023-03-26T09:53:11.962Z,75.91
2023-03-26T09:55:52.194Z,76.76
2023-03-26T09:59:02.054Z,76.46
2023-03-26T10:01:43.583Z,75.81
2023-03-26T10:04:46.417Z,74.25
2023-03-26T10:07:43.823Z,74.29
2023-03-26T10:10:23.986Z,74.84
2023-03-26T10:13:04.884Z,74.74
2023-03-26T10:16:03.162Z,75.13
2023-03-26T10:18:43.409Z,74.33
2023-03-26T10:21:27.506Z,73.93
2023-03-26T10:24:11.664Z,74.27
2023-03-26T10:27:08.572Z,72.47
2023-03-26T10:30:06.404Z,72.61
2023-03-26T10:32:49.762Z,71.63
2023-03-26T10:35:29.328Z,70.93
2023-03-26T10:38:12.028Z,71.59
2023-03-26T10:40:51.051Z,71.43
2023-03-26T10:44:07.403Z,71.21
2023-03-26T10:46:59.987Z,72.02
2023-03-26T10:50:04.958Z,72.36
2023-03-26T10:52:42.917Z,72.44
2023-03-26T10:55:19.292Z,71.54
2023-03-26T10:57:56.328Z,71.79
2023-03-26T11:00:29.373Z,71.67
2023-03-26T11:03:23.538Z,71.80
2023-03-26T11:06:03.990Z,72.27
2023-03-26T11:08:43.945Z,71.60
2023-03-26T11:11:23.250Z,70.85
2023-03-26T11:14:01.367Z,72.48
2023-03-26T11:16:38.684Z,70.65
2023-03-26T11:19:16.584Z,70.83
2023-03-26T11:21:56.086Z,71.20
2023-03-26T11:24:58.984Z,70.96
2023-03-26T11:27:41.465Z,72.11
2023-03-26T11:30:25.096Z,70.80
2023-03-26T11:32:57.478Z,71.42
2023-03-26T11:35:40.368Z,72.18
2023-03-26T11:38:19.953Z,71.08
2023-03-26T11:40:56.006Z,70.87
2023-03-26T11:43:44.455Z,71.41
2023-03-26T11:46:17.437Z,72.24
2023-03-26T11:48:50.872Z,71.79
2023-03-26T11:51:27.817Z,71.44
2023-03-26T11:53:57.925Z,71.56
2023-03-26T11:56:35.154Z,72.44
2023-03-26T11:59:08.563Z,71.14
2023-03-26T12:01:50.659Z,72.54
2023-03-26T12:04:22.793Z,72.03
2023-03-26T12:06:59.936Z,72.31
2023-03-26T12:09:30.030Z,72.29
2023-03-26T12:12:05.468Z,71.63
2023-03-26T12:14:38.058Z,72.24
2023-03-26T12:17:10.671Z,71.90
2023-03-26T12:19:43.359Z,70.94
2023-03-26T12:22:33.384Z,70.19
2023-03-26T12:25:18.852Z,69.39
2023-03-26T12:27:54.788Z,69.34
2023-03-26T12:30:28.220Z,69.09
2023-03-26T12:33:03.762Z,69.36
2023-03-26T12:35:36.117Z,69.82
2023-03-26T12:38:25.890Z,68.55
2023-03-26T12:41:08.767Z,69.01
2023-03-26T12:44:56.210Z,70.35
2023-03-26T12:47:57.774Z,72.70
2023-03-26T12:50:17.346Z,72.97
2023-03-26T12:53:09.263Z,74.39
2023-03-26T12:55:45.146Z,74.43
2023-03-26T12:58:34.927Z,74.33
2023-03-26T13:01:16.948Z,75.17
2023-03-26T13:04:10.358Z,74.92
2023-03-26T13:07:00.351Z,75.63
2023-03-26T13:10:13.703Z,75.50
2023-03-26T13:12:57.130Z,76.70
2023-03-26T13:15:30.763Z,78.17
2023-03-26T13:18:14.993Z,77.90
2023-03-26T13:20:57.658Z,77.27
2023-03-26T13:23:41.854Z,78.20
2023-03-26T13:26:22.402Z,78.98
2023-03-26T13:29:00.492Z,79.29
2023-03-26T13:31:39.821Z,78.16
2023-03-26T13:34:21.427Z,78.36
2023-03-26T13:37:06.613Z,79.51
2023-03-26T13:39:45.878Z,78.21
2023-03-26T13:42:36.849Z,77.54
2023-03-26T13:45:17.660Z,77.35
2023-03-26T13:47:51.163Z,77.68
2023-03-26T13:50:28.654Z,78.47
2023-03-26T13:53:03.224Z,79.11
2023-03-26T13:55:37.696Z,79.75
2023-03-26T13:58:15.132Z,79.71
2023-03-26T14:00:55.194Z,78.08
2023-03-26T14:03:31.966Z,77.88
2023-03-26T14:06:11.458Z,77.25
2023-03-26T14:08:45.313Z,77.43
2023-03-26T14:11:22.258Z,78.00
2023-03-26T14:13:59.044Z,77.85
2023-03-26T14:16:36.516Z,77.64
2023-03-26T14:19:20.463Z,76.75
2023-03-26T14:22:14.453Z,76.19
2023-03-26T14:24:58.378Z,76.80
2023-03-26T14:27:53.854Z,76.77
2023-03-26T14:30:51.351Z,76.52
2023-03-26T14:33:40.579Z,75.89
2023-03-26T14:36:23.120Z,75.32
2023-03-26T14:39:14.450Z,75.71
2023-03-26T14:41:50.825Z,75.05
2023-03-26T14:44:52.380Z,75.46
2023-03-26T14:47:24.664Z,75.47
2023-03-26T14:50:22.752Z,75.74
2023-03-26T14:53:01.424Z,74.43
2023-03-26T14:56:02.080Z,75.31
2023-03-26T14:59:08.742Z,74.92
2023-03-26T15:02:19.707Z,74.86
2023-03-26T15:05:26.806Z,72.00
2023-03-26T15:08:33.706Z,72.05
2023-03-26T15:11:22.673Z,71.47
2023-03-26T15:14:16.118Z,71.38
2023-03-26T15:17:20.774Z,71.63
2023-03-26T15:20:20.488Z,70.97
2023-03-26T15:23:25.568Z,71.74
2023-03-26T15:26:25.563Z,73.19
2023-03-26T15:29:27.268Z,71.71
2023-03-26T15:32:30.363Z,71.05
2023-03-26T15:35:30.127Z,70.69
2023-03-26T15:38:23.445Z,72.05
2023-03-26T15:41:05.368Z,71.95
2023-03-26T15:44:25.554Z,71.56
2023-03-26T15:47:20.467Z,70.65
2023-03-26T15:49:59.343Z,69.51
2023-03-26T15:52:36.597Z,70.62
2023-03-26T15:55:21.549Z,70.73
2023-03-26T15:58:01.644Z,71.37
2023-03-26T16:00:38.229Z,69.23
2023-03-26T16:03:27.541Z,68.53
2023-03-26T16:06:31.310Z,68.52
2023-03-26T16:09:21.124Z,69.82
2023-03-26T16:11:56.472Z,68.74
2023-03-26T16:14:41.192Z,68.21
2023-03-26T16:17:17.622Z,66.83
2023-03-26T16:20:23.187Z,67.54
2023-03-26T16:23:00.977Z,67.57
2023-03-26T16:25:34.431Z,67.63
2023-03-26T16:28:40.434Z,68.72
2023-03-26T16:31:38.343Z,68.88
2023-03-26T16:34:42.266Z,69.12
2023-03-26T16:37:44.010Z,67.80
2023-03-26T16:40:31.630Z,67.39
2023-03-26T16:43:09.259Z,68.11
2023-03-26T16:45:48.250Z,67.97
2023-03-26T16:48:28.380Z,66.81
2023-03-26T16:51:11.684Z,67.37
2023-03-26T16:53:48.582Z,66.93
2023-03-26T16:56:28.170Z,67.38
2023-03-26T16:59:02.405Z,66.23
2023-03-26T17:01:43.733Z,66.86
2023-03-26T17:04:20.894Z,66.48
2023-03-26T17:07:02.012Z,66.16
2023-03-26T17:09:41.681Z,65.67
2023-03-26T17:12:21.622Z,66.43
2023-03-26T17:15:06.116Z,65.69
2023-03-26T17:17:50.912Z,65.57
2023-03-26T17:20:33.348Z,65.58
2023-03-26T17:23:28.246Z,65.49
2023-03-26T17:26:07.409Z,65.81
2023-03-26T17:29:02.602Z,64.83
2023-03-26T17:31:43.131Z,65.03
2023-03-26T17:34:46.792Z,64.98
2023-03-26T17:37:43.645Z,64.74
2023-03-26T17:40:51.241Z,64.97
2023-03-26T17:43:38.076Z,65.19
2023-03-26T17:46:20.031Z,65.37
2023-03-26T17:48:56.771Z,65.61
2023-03-26T17:51:40.445Z,65.28
2023-03-26T17:54:16.658Z,65.74
2023-03-26T17:56:50.678Z,65.42
2023-03-26T17:59:24.123Z,65.79
2023-03-26T18:01:57.556Z,65.96
2023-03-26T18:04:37.735Z,65.59
2023-03-26T18:07:36.308Z,66.23
2023-03-26T18:10:19.937Z,66.19
2023-03-26T18:13:21.952Z,65.82
2023-03-26T18:16:00.211Z,66.76
2023-03-26T18:18:36.986Z,66.45
2023-03-26T18:21:09.334Z,66.12
2023-03-26T18:23:41.712Z,67.03
2023-03-26T18:26:15.679Z,66.51
2023-03-26T18:28:53.706Z,66.73
2023-03-26T18:31:27.021Z,66.62
2023-03-26T18:33:59.606Z,66.70
2023-03-26T18:36:30.562Z,66.70
2023-03-26T18:39:01.688Z,65.88
2023-03-26T18:41:37.485Z,65.44
2023-03-26T18:44:16.158Z,66.42
2023-03-26T18:46:47.324Z,67.10
2023-03-26T18:49:19.206Z,68.18
2023-03-26T18:51:56.653Z,69.81
2023-03-26T18:54:32.149Z,70.47
2023-03-26T18:57:15.420Z,70.73
2023-03-26T18:59:52.306Z,71.01
2023-03-26T19:02:23.982Z,71.46
2023-03-26T19:04:54.708Z,72.36
2023-03-26T19:07:28.174Z,72.50
2023-03-26T19:09:58.429Z,72.10
2023-03-26T19:12:33.097Z,72.49
2023-03-26T19:15:10.239Z,72.31
2023-03-26T19:17:44.149Z,73.18
2023-03-26T19:20:21.161Z,73.05
2023-03-26T19:22:52.188Z,73.99
2023-03-26T19:25:25.302Z,73.83
2023-03-26T19:27:55.474Z,74.04
2023-03-26T19:30:33.260Z,73.67
2023-03-26T19:33:13.059Z,74.71
2023-03-26T19:35:45.605Z,74.88
2023-03-26T19:38:17.413Z,74.63
2023-03-26T19:40:47.978Z,74.61
2023-03-26T19:43:18.595Z,74.45
2023-03-26T19:46:00.564Z,74.01
2023-03-26T19:48:46.353Z,74.24
2023-03-26T19:51:22.384Z,73.82
2023-03-26T19:53:56.076Z,73.99
2023-03-26T19:56:27.482Z,73.50
2023-03-26T19:58:58.454Z,74.28
2023-03-26T20:01:33.498Z,73.84
2023-03-26T20:04:06.535Z,74.01
2023-03-26T20:06:43.608Z,73.89
2023-03-26T20:09:16.497Z,73.75
2023-03-26T20:11:47.210Z,73.28
2023-03-26T20:14:24.593Z,73.05
2023-03-26T20:16:57.122Z,73.18
2023-03-26T20:19:27.596Z,73.51
2023-03-26T20:21:57.453Z,72.85
2023-03-26T20:24:28.381Z,72.49
2023-03-26T20:26:58.206Z,72.45
2023-03-26T20:29:28.841Z,72.57
2023-03-26T20:32:01.344Z,72.08
2023-03-26T20:34:32.270Z,72.13
2023-03-26T20:37:02.941Z,72.07
2023-03-26T20:39:32.825Z,72.02
2023-03-26T20:42:02.653Z,71.66
2023-03-26T20:44:32.493Z,71.95
2023-03-26T20:47:05.001Z,72.08
2023-03-26T20:49:35.530Z,71.87
2023-03-26T20:52:05.471Z,71.77
2023-03-26T20:54:36.025Z,71.77
2023-03-26T20:57:06.399Z,70.79
2023-03-26T20:59:36.314Z,71.22
2023-03-26T21:02:09.871Z,71.41
2023-03-26T21:04:39.715Z,71.68
2023-03-26T21:07:17.596Z,71.43
2023-03-26T21:09:49.219Z,71.87
2023-03-26T21:12:27.797Z,72.39
2023-03-26T21:14:58.287Z,72.26
2023-03-26T21:17:31.545Z,72.34
2023-03-26T21:20:11.608Z,72.58
2023-03-26T21:22:47.125Z,72.56
2023-03-26T21:25:26.029Z,72.36
2023-03-26T21:28:10.615Z,72.27
2023-03-26T21:30:40.921Z,72.37
2023-03-26T21:33:14.044Z,72.25
2023-03-26T21:35:44.910Z,72.91
2023-03-26T21:38:15.671Z,72.79
2023-03-26T21:40:52.925Z,73.23
2023-03-26T21:43:28.662Z,73.99
2023-03-26T21:45:59.418Z,73.56
2023-03-26T21:48:32.708Z,73.94
2023-03-26T21:51:06.723Z,74.33
2023-03-26T21:53:38.217Z,74.23
2023-03-26T21:56:21.690Z,74.27
2023-03-26T21:58:57.169Z,74.49
2023-03-26T22:01:34.818Z,74.76
2023-03-26T22:04:16.584Z,74.86
2023-03-26T22:06:51.744Z,75.13
2023-03-26T22:09:30.135Z,75.05
2023-03-26T22:12:06.762Z,75.14
2023-03-26T22:14:37.252Z,75.29
2023-03-26T22:17:07.911Z,74.89
2023-03-26T22:19:40.363Z,75.19
2023-03-26T22:22:10.686Z,75.60
2023-03-26T22:24:40.543Z,75.26
2023-03-26T22:27:12.994Z,75.10
2023-03-26T22:29:43.354Z,75.26
2023-03-26T22:32:13.445Z,75.32
2023-03-26T22:34:45.843Z,74.84
2023-03-26T22:37:16.385Z,74.57
2023-03-26T22:39:46.227Z,74.83
2023-03-26T22:42:16.033Z,74.72
2023-03-26T22:44:45.866Z,74.65
2023-03-26T22:47:17.184Z,74.46
2023-03-26T22:49:49.643Z,73.80
2023-03-26T22:52:19.478Z,74.34
2023-03-26T22:54:49.261Z,74.86
2023-03-26T22:57:19.084Z,74.63
2023-03-26T22:59:48.992Z,74.29
2023-03-26T23:02:19.367Z,74.64
2023-03-26T23:04:52.821Z,74.60
2023-03-26T23:07:22.731Z,74.37
2023-03-26T23:09:53.260Z,74.73
2023-03-26T23:12:23.126Z,75.00
2023-03-26T23:14:53.818Z,74.75
2023-03-26T23:17:24.125Z,74.72
2023-03-26T23:19:56.503Z,74.55
2023-03-26T23:22:26.308Z,74.67
2023-03-26T23:24:56.277Z,75.04
2023-03-26T23:27:26.117Z,74.90
2023-03-26T23:29:56.093Z,75.15
2023-03-26T23:32:28.273Z,74.92
2023-03-26T23:35:01.032Z,74.77
2023-03-26T23:37:35.216Z,74.96
2023-03-26T23:40:07.759Z,75.46
2023-03-26T23:42:37.635Z,75.19
2023-03-26T23:45:08.760Z,75.46
2023-03-26T23:47:42.746Z,75.51
2023-03-26T23:50:16.721Z,75.83
2023-03-26T23:52:47.518Z,75.88
2023-03-26T23:55:17.336Z,75.87
2023-03-26T23:57:47.173Z,75.81
